sensor_id;sensor_type;location;lat;lon;timestamp;pressure;altitude;pressure_sealevel;temperature;humidity
55858;BME280;41779;52.360;31.026;2022-08-30T00:03:45;1021.9;;;24.8;50.2
55858;BME280;41779;52.360;31.026;2022-08-30T00:08:47;1021.9;;;24.8;50.4
55858;BME280;41779;52.360;31.026;2022-08-30T00:13:22;1021.9;;;24.8;50.6
55858;BME280;41779;52.360;31.026;2022-08-30T00:18:21;1022;;;24.7;50.8
55858;BME280;41779;52.360;31.026;2022-08-30T00:23:47;1022;;;24.6;51.2
55858;BME280;41779;52.360;31.026;2022-08-30T00:28:47;1022;;;24.6;51.8
55858;BME280;41779;52.360;31.026;2022-08-30T00:33:38;1022;;;24.5;52.5
55858;BME280;41779;52.360;31.026;2022-08-30T00:38:06;1022;;;24.5;52.8
55858;BME280;41779;52.360;31.026;2022-08-30T00:43:06;1022;;;24.4;53.1
55858;BME280;41779;52.360;31.026;2022-08-30T00:48:44;1022.1;;;24.4;53.5
55858;BME280;41779;52.360;31.026;2022-08-30T00:53:28;1022.1;;;24.3;54
55858;BME280;41779;52.360;31.026;2022-08-30T00:58:41;1022.1;;;24.2;54.4
55858;BME280;41779;52.360;31.026;2022-08-30T01:03:34;1022.1;;;24.2;55.3
55858;BME280;41779;52.360;31.026;2022-08-30T01:08:49;1022.1;;;24.2;56
55858;BME280;41779;52.360;31.026;2022-08-30T01:13:40;1022.1;;;24.1;56.5
55858;BME280;41779;52.360;31.026;2022-08-30T01:18:50;1022.2;;;24.1;57.1
55858;BME280;41779;52.360;31.026;2022-08-30T01:23:25;1022.2;;;24;57.4
55858;BME280;41779;52.360;31.026;2022-08-30T01:28:17;1022.2;;;24;57.9
55858;BME280;41779;52.360;31.026;2022-08-30T01:33:13;1022.1;;;23.9;58.2
55858;BME280;41779;52.360;31.026;2022-08-30T01:38:42;1022.1;;;23.8;58.4
55858;BME280;41779;52.360;31.026;2022-08-30T01:43:50;1022.1;;;23.8;58.7
55858;BME280;41779;52.360;31.026;2022-08-30T01:48:13;1022.1;;;23.7;59.2
55858;BME280;41779;52.360;31.026;2022-08-30T01:53:40;1022.1;;;23.6;59.7
55858;BME280;41779;52.360;31.026;2022-08-30T01:58:39;1022;;;23.5;60.5
55858;BME280;41779;52.360;31.026;2022-08-30T02:03:05;1022;;;23.5;61.5
55858;BME280;41779;52.360;31.026;2022-08-30T02:08:17;1022;;;23.4;62
55858;BME280;41779;52.360;31.026;2022-08-30T02:13:05;1022;;;23.3;62.4
55858;BME280;41779;52.360;31.026;2022-08-30T02:18:05;1022;;;23.3;62.8
55858;BME280;41779;52.360;31.026;2022-08-30T02:23:05;1022;;;23.3;63.2
55858;BME280;41779;52.360;31.026;2022-08-30T02:28:27;1022.1;;;23.2;63.6
55858;BME280;41779;52.360;31.026;2022-08-30T02:33:53;1022.2;;;23.1;63.6
55858;BME280;41779;52.360;31.026;2022-08-30T02:38:51;1022.2;;;23.1;63.8
55858;BME280;41779;52.360;31.026;2022-08-30T02:43:24;1022.2;;;23;64
55858;BME280;41779;52.360;31.026;2022-08-30T02:48:25;1022.2;;;22.9;64.4
55858;BME280;41779;52.360;31.026;2022-08-30T02:53:53;1022.2;;;22.8;64.7
55858;BME280;41779;52.360;31.026;2022-08-30T02:58:53;1022.3;;;22.7;65.7
55858;BME280;41779;52.360;31.026;2022-08-30T03:03:05;1022.4;;;22.7;66.4
55858;BME280;41779;52.360;31.026;2022-08-30T03:08:06;1022.3;;;22.7;66.7
55858;BME280;41779;52.360;31.026;2022-08-30T03:13:05;1022.3;;;22.6;66.9
55858;BME280;41779;52.360;31.026;2022-08-30T03:18:29;1022.3;;;22.7;66.9
55858;BME280;41779;52.360;31.026;2022-08-30T03:23:27;1022.4;;;22.7;67
55858;BME280;41779;52.360;31.026;2022-08-30T03:28:31;1022.4;;;22.7;67
55858;BME280;41779;52.360;31.026;2022-08-30T03:33:37;1022.5;;;22.6;67
55858;BME280;41779;52.360;31.026;2022-08-30T03:38:55;1022.5;;;22.6;67.1
55858;BME280;41779;52.360;31.026;2022-08-30T03:43:42;1022.5;;;22.5;67.2
55858;BME280;41779;52.360;31.026;2022-08-30T03:48:29;1022.5;;;22.5;67.3
55858;BME280;41779;52.360;31.026;2022-08-30T03:53:05;1022.6;;;22.5;67.3
55858;BME280;41779;52.360;31.026;2022-08-30T03:58:05;1022.6;;;22.5;67.7
55858;BME280;41779;52.360;31.026;2022-08-30T04:03:15;1022.6;;;22.5;68
55858;BME280;41779;52.360;31.026;2022-08-30T04:08:41;1022.7;;;22.4;68.2
55858;BME280;41779;52.360;31.026;2022-08-30T04:13:53;1022.7;;;22.4;68.5
55858;BME280;41779;52.360;31.026;2022-08-30T04:18:27;1022.7;;;22.4;68.7
55858;BME280;41779;52.360;31.026;2022-08-30T04:23:41;1022.7;;;22.4;68.9
55858;BME280;41779;52.360;31.026;2022-08-30T04:28:39;1022.8;;;22.4;68.9
55858;BME280;41779;52.360;31.026;2022-08-30T04:33:25;1022.8;;;22.5;68.7
55858;BME280;41779;52.360;31.026;2022-08-30T04:38:05;1022.8;;;22.5;68.7
55858;BME280;41779;52.360;31.026;2022-08-30T04:43:05;1022.8;;;22.5;68.8
55858;BME280;41779;52.360;31.026;2022-08-30T04:48:15;1022.8;;;22.5;68.9
55858;BME280;41779;52.360;31.026;2022-08-30T04:53:15;1022.8;;;22.5;68.9
55858;BME280;41779;52.360;31.026;2022-08-30T04:58:27;1022.9;;;22.5;69.3
55858;BME280;41779;52.360;31.026;2022-08-30T05:03:52;1022.9;;;22.5;69.9
55858;BME280;41779;52.360;31.026;2022-08-30T05:08:52;1022.9;;;22.5;70.2
55858;BME280;41779;52.360;31.026;2022-08-30T05:13:23;1022.9;;;22.5;70.4
55858;BME280;41779;52.360;31.026;2022-08-30T05:18:23;1022.9;;;22.5;70.6
55858;BME280;41779;52.360;31.026;2022-08-30T05:23:54;1022.9;;;22.6;70.5
55858;BME280;41779;52.360;31.026;2022-08-30T05:28:54;1022.9;;;22.6;70.3
55858;BME280;41779;52.360;31.026;2022-08-30T05:33:15;1023;;;22.6;70.4
55858;BME280;41779;52.360;31.026;2022-08-30T05:38:15;1023.1;;;22.6;70.4
55858;BME280;41779;52.360;31.026;2022-08-30T05:43:15;1023.2;;;22.7;70.3
55858;BME280;41779;52.360;31.026;2022-08-30T05:48:39;1023.2;;;22.7;70.2
55858;BME280;41779;52.360;31.026;2022-08-30T05:53:27;1023.1;;;22.8;70.1
55858;BME280;41779;52.360;31.026;2022-08-30T05:58:29;1023.1;;;22.8;70
55858;BME280;41779;52.360;31.026;2022-08-30T06:03:39;1023.1;;;22.8;70.1
55858;BME280;41779;52.360;31.026;2022-08-30T06:08:39;1023.2;;;22.9;70
55858;BME280;41779;52.360;31.026;2022-08-30T06:13:41;1023.2;;;22.9;70
55858;BME280;41779;52.360;31.026;2022-08-30T06:18:07;1023.2;;;22.9;69.9
55858;BME280;41779;52.360;31.026;2022-08-30T06:23:39;1023.2;;;22.9;70.1
55858;BME280;41779;52.360;31.026;2022-08-30T06:28:15;1023.2;;;23;70.1
55858;BME280;41779;52.360;31.026;2022-08-30T06:33:05;1023.3;;;23;70
55858;BME280;41779;52.360;31.026;2022-08-30T06:38:43;1023.3;;;23;70.1
55858;BME280;41779;52.360;31.026;2022-08-30T06:43:54;1023.4;;;23;70.2
55858;BME280;41779;52.360;31.026;2022-08-30T06:48:41;1023.4;;;23;70.4
55858;BME280;41779;52.360;31.026;2022-08-30T06:53:51;1023.5;;;23;70.4
55858;BME280;41779;52.360;31.026;2022-08-30T06:58:39;1023.5;;;23;70.4
55858;BME280;41779;52.360;31.026;2022-08-30T07:03:26;1023.5;;;23;70.7
55858;BME280;41779;52.360;31.026;2022-08-30T07:08:07;1023.5;;;23;70.9
55858;BME280;41779;52.360;31.026;2022-08-30T07:13:41;1023.6;;;23;71.1
55858;BME280;41779;52.360;31.026;2022-08-30T07:18:27;1023.5;;;23;71.2
55858;BME280;41779;52.360;31.026;2022-08-30T07:23:29;1023.5;;;23;70.9
55858;BME280;41779;52.360;31.026;2022-08-30T07:28:32;1023.5;;;23.1;70.7
55858;BME280;41779;52.360;31.026;2022-08-30T07:33:55;1023.5;;;23.3;70.1
55858;BME280;41779;52.360;31.026;2022-08-30T07:38:55;1023.5;;;23.3;69.7
55858;BME280;41779;52.360;31.026;2022-08-30T07:43:15;1023.6;;;23.3;69.4
55858;BME280;41779;52.360;31.026;2022-08-30T07:48:15;1023.6;;;23.3;69.2
55858;BME280;41779;52.360;31.026;2022-08-30T07:53:39;1023.7;;;23.3;69.2
55858;BME280;41779;52.360;31.026;2022-08-30T07:58:53;1023.7;;;23.3;69.1
55858;BME280;41779;52.360;31.026;2022-08-30T08:03:25;1023.7;;;23.3;68.9
55858;BME280;41779;52.360;31.026;2022-08-30T08:08:07;1023.7;;;23.4;68.8
55858;BME280;41779;52.360;31.026;2022-08-30T08:13:15;1023.7;;;23.4;68.3
55858;BME280;41779;52.360;31.026;2022-08-30T08:18:39;1023.7;;;23.4;68.2
55858;BME280;41779;52.360;31.026;2022-08-30T08:23:15;1023.8;;;23.4;68.1
55858;BME280;41779;52.360;31.026;2022-08-30T08:28:25;1023.7;;;23.5;67.9
55858;BME280;41779;52.360;31.026;2022-08-30T08:33:35;1023.7;;;23.6;67.6
55858;BME280;41779;52.360;31.026;2022-08-30T08:38:41;1023.7;;;23.8;66.9
55858;BME280;41779;52.360;31.026;2022-08-30T08:43:41;1023.7;;;24;66.3
55858;BME280;41779;52.360;31.026;2022-08-30T08:48:53;1023.7;;;24.1;65.8
55858;BME280;41779;52.360;31.026;2022-08-30T08:53:39;1023.7;;;24.2;65.2
55858;BME280;41779;52.360;31.026;2022-08-30T08:58:54;1023.7;;;24.2;65
55858;BME280;41779;52.360;31.026;2022-08-30T09:03:27;1023.7;;;24.4;63.9
55858;BME280;41779;52.360;31.026;2022-08-30T09:08:51;1023.7;;;24.6;63
55858;BME280;41779;52.360;31.026;2022-08-30T09:13:53;1023.7;;;24.8;62.1
55858;BME280;41779;52.360;31.026;2022-08-30T09:18:44;1023.7;;;25;60.8
55858;BME280;41779;52.360;31.026;2022-08-30T09:23:48;1023.7;;;25.1;59.9
55858;BME280;41779;52.360;31.026;2022-08-30T09:28:46;1023.7;;;25.1;60.1
55858;BME280;41779;52.360;31.026;2022-08-30T09:33:52;1023.7;;;25.2;60.5
55858;BME280;41779;52.360;31.026;2022-08-30T09:38:29;1023.7;;;25.3;60
55858;BME280;41779;52.360;31.026;2022-08-30T09:43:41;1023.7;;;25.5;59.7
55858;BME280;41779;52.360;31.026;2022-08-30T09:48:37;1023.7;;;25.6;59.2
55858;BME280;41779;52.360;31.026;2022-08-30T09:53:14;1023.7;;;25.7;58.9
55858;BME280;41779;52.360;31.026;2022-08-30T09:58:35;1023.7;;;25.9;58.2
55858;BME280;41779;52.360;31.026;2022-08-30T10:03:55;1023.7;;;25.9;57.4
55858;BME280;41779;52.360;31.026;2022-08-30T10:09:02;1023.7;;;26;56.7
55858;BME280;41779;52.360;31.026;2022-08-30T10:14:02;1023.8;;;26.1;56
55858;BME280;41779;52.360;31.026;2022-08-30T10:19:24;1023.8;;;26.2;55.6
55858;BME280;41779;52.360;31.026;2022-08-30T10:23:28;1023.8;;;26.1;56
55858;BME280;41779;52.360;31.026;2022-08-30T10:28:55;1023.7;;;26.4;55.9
55858;BME280;41779;52.360;31.026;2022-08-30T10:33:50;1023.7;;;27;54.9
55858;BME280;41779;52.360;31.026;2022-08-30T10:38:09;1023.6;;;27.5;52.7
55858;BME280;41779;52.360;31.026;2022-08-30T10:43:07;1023.5;;;27.7;50
55858;BME280;41779;52.360;31.026;2022-08-30T10:48:30;1023.6;;;27.6;49.1
55858;BME280;41779;52.360;31.026;2022-08-30T10:53:39;1023.6;;;27.2;49.9
55858;BME280;41779;52.360;31.026;2022-08-30T10:58:06;1023.6;;;26.9;50.5
55858;BME280;41779;52.360;31.026;2022-08-30T11:08:45;1023.5;;;26.7;51.6
55858;BME280;41779;52.360;31.026;2022-08-30T11:13:42;1023.4;;;27;50.7
55858;BME280;41779;52.360;31.026;2022-08-30T11:18:11;1023.3;;;27.3;49.8
55858;BME280;41779;52.360;31.026;2022-08-30T11:24:06;1023.4;;;27.5;49.6
55858;BME280;41779;52.360;31.026;2022-08-30T11:29:01;1023.3;;;27.8;48.7
55858;BME280;41779;52.360;31.026;2022-08-30T11:38:58;1023.3;;;28;45.3
55858;BME280;41779;52.360;31.026;2022-08-30T11:43:50;1023.3;;;28;44.8
55858;BME280;41779;52.360;31.026;2022-08-30T11:49:59;1023.3;;;27.8;44
55858;BME280;41779;52.360;31.026;2022-08-30T11:54:33;1023.3;;;27.8;44.2
55858;BME280;41779;52.360;31.026;2022-08-30T11:58:43;1023.2;;;28;43.4
55858;BME280;41779;52.360;31.026;2022-08-30T12:03:58;1023.2;;;28.2;43.3
55858;BME280;41779;52.360;31.026;2022-08-30T12:08:47;1023.2;;;28.4;42.7
55858;BME280;41779;52.360;31.026;2022-08-30T12:13:50;1023.2;;;28.4;42.5
55858;BME280;41779;52.360;31.026;2022-08-30T12:18:05;1023.2;;;28.6;42.4
55858;BME280;41779;52.360;31.026;2022-08-30T12:28:15;1023.1;;;28.7;42
55858;BME280;41779;52.360;31.026;2022-08-30T12:33:33;1023;;;28.9;41.1
55858;BME280;41779;52.360;31.026;2022-08-30T12:39:02;1023;;;28.8;40.7
55858;BME280;41779;52.360;31.026;2022-08-30T12:43:50;1023;;;28.6;40.8
55858;BME280;41779;52.360;31.026;2022-08-30T12:48:07;1023;;;28.3;41.5
55858;BME280;41779;52.360;31.026;2022-08-30T12:53:40;1022.9;;;28.2;41.7
55858;BME280;41779;52.360;31.026;2022-08-30T12:58:53;1022.9;;;28.3;41.9
55858;BME280;41779;52.360;31.026;2022-08-30T13:04:50;1022.8;;;28.5;40.4
55858;BME280;41779;52.360;31.026;2022-08-30T13:08:48;1022.8;;;28.6;39.6
55858;BME280;41779;52.360;31.026;2022-08-30T13:13:05;1022.8;;;28.8;39.7
55858;BME280;41779;52.360;31.026;2022-08-30T13:18:15;1022.8;;;28.8;39.7
55858;BME280;41779;52.360;31.026;2022-08-30T13:23:38;1022.7;;;28.8;39.5
55858;BME280;41779;52.360;31.026;2022-08-30T13:28:08;1022.7;;;28.6;39.2
55858;BME280;41779;52.360;31.026;2022-08-30T13:33:38;1022.7;;;28.6;39.7
55858;BME280;41779;52.360;31.026;2022-08-30T13:38:32;1022.7;;;28.7;38.9
55858;BME280;41779;52.360;31.026;2022-08-30T13:43:54;1022.7;;;28.8;36.8
55858;BME280;41779;52.360;31.026;2022-08-30T13:48:42;1022.7;;;28.8;35.8
55858;BME280;41779;52.360;31.026;2022-08-30T13:53:54;1022.7;;;28.6;36.4
55858;BME280;41779;52.360;31.026;2022-08-30T13:58:18;1022.6;;;28.5;37.3
55858;BME280;41779;52.360;31.026;2022-08-30T14:03:16;1022.6;;;28.5;37.7
55858;BME280;41779;52.360;31.026;2022-08-30T14:08:18;1022.6;;;28.5;37.9
55858;BME280;41779;52.360;31.026;2022-08-30T14:13:40;1022.6;;;28.3;38.5
55858;BME280;41779;52.360;31.026;2022-08-30T14:18:52;1022.6;;;28.2;38.8
55858;BME280;41779;52.360;31.026;2022-08-30T14:23:26;1022.6;;;28.2;38.6
55858;BME280;41779;52.360;31.026;2022-08-30T14:28:38;1022.5;;;28.1;38.3
55858;BME280;41779;52.360;31.026;2022-08-30T14:33:34;1022.5;;;28.2;38.3
55858;BME280;41779;52.360;31.026;2022-08-30T14:38:28;1022.5;;;28.2;37.7
55858;BME280;41779;52.360;31.026;2022-08-30T14:43:18;1022.5;;;28.2;37
55858;BME280;41779;52.360;31.026;2022-08-30T14:48:38;1022.4;;;28.2;36.9
55858;BME280;41779;52.360;31.026;2022-08-30T14:53:26;1022.5;;;28.2;36.7
55858;BME280;41779;52.360;31.026;2022-08-30T14:58:26;1022.5;;;28.1;35.8
55858;BME280;41779;52.360;31.026;2022-08-30T15:03:24;1022.4;;;28;35.5
55858;BME280;41779;52.360;31.026;2022-08-30T15:08:48;1022.4;;;28;35.6
55858;BME280;41779;52.360;31.026;2022-08-30T15:13:36;1022.4;;;27.9;35.7
55858;BME280;41779;52.360;31.026;2022-08-30T15:18:24;1022.4;;;27.9;35.7
55858;BME280;41779;52.360;31.026;2022-08-30T15:23:24;1022.4;;;27.8;35.6
55858;BME280;41779;52.360;31.026;2022-08-30T15:28:36;1022.4;;;27.8;35.8
55858;BME280;41779;52.360;31.026;2022-08-30T15:33:44;1022.3;;;27.8;35.6
55858;BME280;41779;52.360;31.026;2022-08-30T15:38:16;1022.3;;;27.6;35.2
55858;BME280;41779;52.360;31.026;2022-08-30T15:43:06;1022.3;;;27.6;35.7
55858;BME280;41779;52.360;31.026;2022-08-30T15:48:06;1022.2;;;27.6;35.9
55858;BME280;41779;52.360;31.026;2022-08-30T15:53:26;1022.2;;;27.6;36.2
55858;BME280;41779;52.360;31.026;2022-08-30T15:58:26;1022.3;;;27.5;36.5
55858;BME280;41779;52.360;31.026;2022-08-30T16:03:36;1022.3;;;27.4;36.7
55858;BME280;41779;52.360;31.026;2022-08-30T16:08:38;1022.3;;;27.3;36.9
55858;BME280;41779;52.360;31.026;2022-08-30T16:13:36;1022.3;;;27.3;37
55858;BME280;41779;52.360;31.026;2022-08-30T16:18:38;1022.3;;;27.2;37.3
55858;BME280;41779;52.360;31.026;2022-08-30T16:23:49;1022.3;;;27.1;37.5
55858;BME280;41779;52.360;31.026;2022-08-30T16:28:36;1022.3;;;27;37.9
55858;BME280;41779;52.360;31.026;2022-08-30T16:33:06;1022.4;;;26.9;38.2
55858;BME280;41779;52.360;31.026;2022-08-30T16:38:16;1022.3;;;26.8;38.6
55858;BME280;41779;52.360;31.026;2022-08-30T16:43:48;1022.4;;;26.7;39.2
55858;BME280;41779;52.360;31.026;2022-08-30T16:48:50;1022.4;;;26.6;39.7
55858;BME280;41779;52.360;31.026;2022-08-30T16:53:36;1022.5;;;26.5;40.2
55858;BME280;41779;52.360;31.026;2022-08-30T16:58:50;1022.5;;;26.4;40.7
55858;BME280;41779;52.360;31.026;2022-08-30T17:03:34;1022.5;;;26.3;41.1
55858;BME280;41779;52.360;31.026;2022-08-30T17:08:44;1022.6;;;26.2;41.3
55858;BME280;41779;52.360;31.026;2022-08-30T17:13:06;1022.7;;;26.1;41.5
55858;BME280;41779;52.360;31.026;2022-08-30T17:18:36;1022.7;;;26;41.8
55858;BME280;41779;52.360;31.026;2022-08-30T17:23:14;1022.7;;;25.9;42
55858;BME280;41779;52.360;31.026;2022-08-30T17:28:38;1022.8;;;25.8;42.3
55858;BME280;41779;52.360;31.026;2022-08-30T17:33:24;1022.8;;;25.7;42.7
55858;BME280;41779;52.360;31.026;2022-08-30T17:38:50;1022.9;;;25.6;43
55858;BME280;41779;52.360;31.026;2022-08-30T17:43:38;1022.9;;;25.5;43.4
55858;BME280;41779;52.360;31.026;2022-08-30T17:48:26;1022.9;;;25.4;43.7
55858;BME280;41779;52.360;31.026;2022-08-30T17:53:16;1023;;;25.3;44
55858;BME280;41779;52.360;31.026;2022-08-30T17:58:26;1023.1;;;25.2;44.2
55858;BME280;41779;52.360;31.026;2022-08-30T18:03:50;1023.1;;;25.2;44.3
55858;BME280;41779;52.360;31.026;2022-08-30T18:08:26;1023.1;;;25.2;44.4
55858;BME280;41779;52.360;31.026;2022-08-30T18:13:16;1023.2;;;25.1;44.5
55858;BME280;41779;52.360;31.026;2022-08-30T18:18:16;1023.2;;;25;44.7
